Blainesville, Ohio
Current Conditions -  °F | °C
As of 3:23 AM on Friday 24 Oct 2014 (Local Time) from KHLG Reporting Station
Moderate Fog Moderate Fog  
Wind Chill: 40°   Ceiling: 200
Heat Index: 40°   Visibility: 0.5mi
Dew Point: 40°   Wind: 3mph
Humidity: 100%   Direction: 280°W
Pressure: 30.09"   Gusts: NA
Location:  40.1184°N, 80.8722°W
Report Text: KHLG 240723Z AUTO 28003KT 1/2SM R03/1400V2400FT FG VV002 04/04 A3009 RMK AO2 T00440044
Loading
Personal Weather Stations






























Interactive Weather Map
Tropical Storm Tracking
New forecast layout! Learn more

10-Day Weather Forecast

Advertisements
Track Severe Weather on mobile